Terminal Aerodrome Forecast
Issued by NWS

Home | Current Version | Previous Version | Text Only | Print | Product List | Glossary On
Versions: 1 2 3 4 5 6 7 8 9 10 11 12 13 14 15 16 17 18 19 20 21 22 23 24
000
FTUS43 KMKX 281720
TAFENW
TAF
KENW 281720Z 2818/2918 07008KT P6SM SCT020 BKN035
     FM282000 07009KT P6SM VCTS BKN050CB
     FM282200 04010KT P6SM VCTS BKN120CB
     FM290000 03009KT P6SM VCTS BKN110CB
     FM290300 03006KT P6SM BKN100 PROB30 2903/2909 4SM SHRA OVC040
     FM291000 06006KT P6SM BKN060=

USA.gov is the U.S. government's official web portal to all federal, state and local government web resources and services.